createdAt,value
2017-09-06T00:00:00.162Z,18.75
2017-09-06T00:02:28.455Z,18.77
2017-09-06T00:04:56.771Z,18.77
2017-09-06T00:07:25.097Z,18.75
2017-09-06T00:09:53.393Z,18.74
2017-09-06T00:12:21.697Z,18.71
2017-09-06T00:14:49.992Z,18.74
2017-09-06T00:17:18.303Z,18.74
2017-09-06T00:19:46.597Z,18.75
2017-09-06T00:22:14.904Z,18.76
2017-09-06T00:24:43.217Z,18.75
2017-09-06T00:27:11.521Z,18.74
2017-09-06T00:29:39.813Z,18.80
2017-09-06T00:32:08.493Z,18.80
2017-09-06T00:34:36.818Z,18.84
2017-09-06T00:37:05.121Z,18.84
2017-09-06T00:39:33.445Z,18.87
2017-09-06T00:42:01.746Z,18.84
2017-09-06T00:44:30.052Z,18.82
2017-09-06T00:46:58.340Z,18.78
2017-09-06T00:49:26.645Z,18.79
2017-09-06T00:51:54.936Z,18.81
2017-09-06T00:54:23.242Z,18.81
2017-09-06T00:56:51.846Z,18.84
2017-09-06T00:59:20.156Z,18.85
2017-09-06T01:01:48.448Z,18.82
2017-09-06T01:04:16.753Z,18.81
2017-09-06T01:06:45.054Z,18.83
2017-09-06T01:09:13.381Z,18.84
2017-09-06T01:11:41.688Z,18.81
2017-09-06T01:14:09.986Z,18.79
2017-09-06T01:16:38.303Z,18.81
2017-09-06T01:19:06.620Z,18.83
2017-09-06T01:21:34.921Z,18.77
2017-09-06T01:24:03.221Z,18.79
2017-09-06T01:26:31.533Z,18.83
2017-09-06T01:28:59.854Z,18.89
2017-09-06T01:31:28.149Z,18.88
2017-09-06T01:33:56.461Z,18.92
2017-09-06T01:36:24.769Z,18.89
2017-09-06T01:38:53.064Z,18.89
2017-09-06T01:41:21.388Z,18.90
2017-09-06T01:43:49.687Z,18.78
2017-09-06T01:46:17.989Z,18.86
2017-09-06T01:48:46.376Z,18.87
2017-09-06T01:51:14.683Z,18.85
2017-09-06T01:53:43.023Z,18.83
2017-09-06T01:56:11.312Z,18.83
2017-09-06T01:58:39.620Z,18.81
2017-09-06T02:01:07.964Z,18.83
2017-09-06T02:03:36.260Z,18.86
2017-09-06T02:06:04.558Z,18.86
2017-09-06T02:08:32.883Z,18.89
2017-09-06T02:11:01.173Z,18.87
2017-09-06T02:13:29.462Z,18.89
2017-09-06T02:15:57.774Z,18.89
2017-09-06T02:18:26.069Z,18.80
2017-09-06T02:20:54.369Z,18.62
2017-09-06T02:23:22.661Z,18.70
2017-09-06T02:25:50.968Z,18.70
2017-09-06T02:28:19.269Z,18.70
2017-09-06T02:30:47.571Z,18.68
2017-09-06T02:33:15.872Z,18.64
2017-09-06T02:35:44.185Z,18.61
2017-09-06T02:38:12.497Z,18.60
2017-09-06T02:40:40.830Z,18.59
2017-09-06T02:43:09.142Z,18.61
2017-09-06T02:45:37.440Z,18.61
2017-09-06T02:48:05.742Z,18.65
2017-09-06T02:50:34.036Z,18.61
2017-09-06T02:53:02.343Z,18.65
2017-09-06T02:55:30.642Z,18.61
2017-09-06T02:57:58.975Z,18.56
2017-09-06T03:00:27.279Z,18.59
2017-09-06T03:02:55.582Z,18.59
2017-09-06T03:05:23.885Z,18.60
2017-09-06T03:07:52.189Z,18.62
2017-09-06T03:10:20.498Z,18.64
2017-09-06T03:12:48.897Z,18.69
2017-09-06T03:15:17.193Z,18.66
2017-09-06T03:17:45.543Z,18.58
2017-09-06T03:20:13.851Z,18.61
2017-09-06T03:22:42.155Z,18.57
2017-09-06T03:25:10.452Z,18.55
2017-09-06T03:27:38.753Z,18.58
2017-09-06T03:30:07.069Z,18.59
2017-09-06T03:32:35.361Z,18.55
2017-09-06T03:35:03.671Z,18.59
2017-09-06T03:37:31.965Z,18.62
2017-09-06T03:40:00.274Z,18.58
2017-09-06T03:42:28.569Z,18.53
2017-09-06T03:44:56.883Z,18.49
2017-09-06T03:47:25.195Z,18.45
2017-09-06T03:49:53.495Z,18.45
2017-09-06T03:52:21.802Z,18.45
2017-09-06T03:54:50.106Z,18.45
2017-09-06T03:57:18.426Z,18.48
2017-09-06T03:59:46.733Z,18.49
2017-09-06T04:02:15.045Z,18.45
2017-09-06T04:04:43.345Z,18.47
2017-09-06T04:07:11.694Z,18.47
2017-09-06T04:09:40.009Z,18.58
2017-09-06T04:12:08.312Z,18.62
2017-09-06T04:14:36.625Z,18.66
2017-09-06T04:17:04.925Z,18.69
2017-09-06T04:19:33.236Z,18.72
2017-09-06T04:22:01.553Z,18.78
2017-09-06T04:24:29.875Z,18.78
2017-09-06T04:26:58.194Z,18.77
2017-09-06T04:29:26.510Z,18.75
2017-09-06T04:31:54.820Z,18.78
2017-09-06T04:34:23.135Z,18.71
2017-09-06T04:36:51.442Z,18.75
2017-09-06T04:39:19.750Z,18.80
2017-09-06T04:41:48.068Z,18.79
2017-09-06T04:44:16.369Z,18.79
2017-09-06T04:46:44.710Z,18.74
2017-09-06T04:49:13.019Z,18.75
2017-09-06T04:51:41.349Z,18.72
2017-09-06T04:54:09.648Z,18.75
2017-09-06T04:56:37.942Z,18.76
2017-09-06T04:59:06.256Z,18.71
2017-09-06T05:01:34.567Z,18.64
2017-09-06T05:04:02.885Z,18.68
2017-09-06T05:06:31.187Z,18.76
2017-09-06T05:08:59.501Z,18.83
2017-09-06T05:11:27.801Z,18.84
2017-09-06T05:13:56.126Z,18.94
2017-09-06T05:16:24.455Z,18.87
2017-09-06T05:18:52.771Z,19.03
2017-09-06T05:21:21.085Z,19.11
2017-09-06T05:23:49.390Z,19.13
2017-09-06T05:26:17.753Z,19.12
2017-09-06T05:28:46.050Z,19.14
2017-09-06T05:31:14.386Z,19.12
2017-09-06T05:33:42.689Z,19.18
2017-09-06T05:36:11.003Z,19.29
2017-09-06T05:38:39.313Z,19.36
2017-09-06T05:41:07.620Z,19.52
2017-09-06T05:43:35.935Z,19.59
2017-09-06T05:46:04.264Z,19.62
2017-09-06T05:48:32.569Z,19.67
2017-09-06T05:51:00.909Z,19.82
2017-09-06T05:53:29.230Z,19.95
2017-09-06T05:55:57.538Z,20.08
2017-09-06T05:58:25.849Z,20.16
2017-09-06T06:00:54.150Z,20.43
2017-09-06T06:03:22.574Z,20.62
2017-09-06T06:05:50.873Z,20.89
2017-09-06T06:08:19.209Z,21.19
2017-09-06T06:10:47.587Z,21.48
2017-09-06T06:13:15.896Z,21.61
2017-09-06T06:15:44.241Z,21.57
2017-09-06T06:18:12.631Z,21.65
2017-09-06T06:20:40.937Z,21.54
2017-09-06T06:23:09.236Z,21.27
2017-09-06T06:25:37.549Z,21.56
2017-09-06T06:28:05.845Z,21.96
2017-09-06T06:30:34.157Z,21.46
2017-09-06T06:33:02.493Z,21.69
2017-09-06T06:35:30.804Z,22.02
2017-09-06T06:37:59.148Z,22.09
2017-09-06T06:40:27.469Z,22.10
2017-09-06T06:42:55.805Z,22.06
2017-09-06T06:45:24.110Z,21.90
2017-09-06T06:47:52.449Z,21.83
2017-09-06T06:50:20.794Z,22.19
2017-09-06T06:52:49.112Z,22.51
2017-09-06T06:55:17.409Z,22.27
2017-09-06T06:57:45.713Z,22.30
2017-09-06T07:00:14.009Z,22.12
2017-09-06T07:02:42.320Z,21.50
2017-09-06T07:05:10.613Z,21.20
2017-09-06T07:07:38.950Z,21.15
2017-09-06T07:10:07.254Z,20.90
2017-09-06T07:12:35.550Z,20.69
2017-09-06T07:15:03.857Z,20.41
2017-09-06T07:17:32.165Z,20.05
2017-09-06T07:20:00.473Z,19.88
2017-09-06T07:22:28.769Z,19.66
2017-09-06T07:24:57.090Z,19.47
2017-09-06T07:27:25.394Z,19.43
2017-09-06T07:29:53.767Z,19.21
2017-09-06T07:32:22.072Z,19.16
2017-09-06T07:34:50.373Z,19.12
2017-09-06T07:37:18.694Z,19.20
2017-09-06T07:39:46.993Z,19.22
2017-09-06T07:42:15.298Z,19.46
2017-09-06T07:44:43.605Z,19.24
2017-09-06T07:47:11.909Z,19.25
2017-09-06T07:49:40.200Z,19.23
2017-09-06T07:52:08.536Z,19.30
2017-09-06T07:54:36.846Z,19.04
2017-09-06T07:57:05.149Z,19.34
2017-09-06T07:59:33.465Z,19.25
2017-09-06T08:02:01.875Z,19.17
2017-09-06T08:04:30.189Z,19.21
2017-09-06T08:07:03.963Z,19.39
2017-09-06T08:09:32.288Z,19.46
2017-09-06T08:12:00.737Z,19.57
2017-09-06T08:14:29.046Z,19.63
2017-09-06T08:16:57.363Z,19.60
2017-09-06T08:19:25.657Z,19.75
2017-09-06T08:21:53.957Z,19.77
2017-09-06T08:24:22.260Z,19.83
2017-09-06T08:26:50.569Z,19.92
2017-09-06T08:29:18.861Z,19.99
2017-09-06T08:31:47.164Z,20.07
2017-09-06T08:34:15.497Z,20.14
2017-09-06T08:36:43.821Z,20.40
2017-09-06T08:39:12.126Z,20.41
2017-09-06T08:41:40.422Z,20.68
2017-09-06T08:44:08.726Z,20.55
2017-09-06T08:46:37.029Z,20.54
2017-09-06T08:49:05.351Z,21.05
2017-09-06T08:51:33.657Z,21.14
2017-09-06T08:54:01.958Z,21.63
2017-09-06T08:56:30.262Z,22.00
2017-09-06T08:58:58.574Z,21.82
2017-09-06T09:01:26.865Z,22.30
2017-09-06T09:03:55.165Z,22.57
2017-09-06T09:06:23.488Z,22.10
2017-09-06T09:08:51.830Z,22.06
2017-09-06T09:11:20.125Z,21.80
2017-09-06T09:13:48.428Z,21.78
2017-09-06T09:16:16.745Z,22.08
2017-09-06T09:18:45.062Z,22.31
2017-09-06T09:21:13.377Z,22.39
2017-09-06T09:23:41.741Z,22.33
2017-09-06T09:26:10.048Z,22.55
2017-09-06T09:28:38.345Z,22.31
2017-09-06T09:31:06.673Z,22.56
2017-09-06T09:33:34.960Z,22.48
2017-09-06T09:36:03.329Z,23.41
2017-09-06T09:38:31.641Z,24.70
2017-09-06T09:40:59.937Z,23.75
2017-09-06T09:43:28.272Z,23.81
2017-09-06T09:45:56.566Z,24.16
2017-09-06T09:48:24.892Z,26.58
2017-09-06T09:50:53.303Z,30.05
2017-09-06T09:53:21.605Z,29.13
2017-09-06T09:55:49.919Z,29.74
2017-09-06T09:58:18.240Z,31.48
2017-09-06T10:00:46.533Z,31.81
2017-09-06T10:03:14.832Z,28.20
2017-09-06T10:05:43.237Z,26.06
2017-09-06T10:08:11.537Z,24.60
2017-09-06T10:10:39.844Z,24.33
2017-09-06T10:13:08.134Z,23.68
2017-09-06T10:15:36.448Z,23.55
2017-09-06T10:18:04.744Z,23.59
2017-09-06T10:20:33.077Z,23.25
2017-09-06T10:23:01.506Z,23.25
2017-09-06T10:25:29.885Z,23.46
2017-09-06T10:27:58.257Z,24.01
2017-09-06T10:30:26.549Z,24.19
2017-09-06T10:32:54.858Z,24.63
2017-09-06T10:35:23.164Z,25.23
2017-09-06T10:37:51.465Z,26.86
2017-09-06T10:40:19.811Z,27.14
2017-09-06T10:42:48.116Z,27.83
2017-09-06T10:45:16.405Z,27.49
2017-09-06T10:47:44.712Z,27.95
2017-09-06T10:50:13.009Z,27.17
2017-09-06T10:52:41.365Z,25.99
2017-09-06T10:55:09.656Z,24.92
2017-09-06T10:57:37.966Z,25.21
2017-09-06T11:00:06.282Z,25.27
2017-09-06T11:02:34.588Z,24.70
2017-09-06T11:05:02.901Z,24.21
2017-09-06T11:07:31.289Z,24.30
2017-09-06T11:09:59.597Z,24.44
2017-09-06T11:12:27.903Z,24.71
2017-09-06T11:14:56.225Z,25.17
2017-09-06T11:17:24.605Z,24.85
2017-09-06T11:19:52.981Z,24.37
2017-09-06T11:22:21.282Z,23.84
2017-09-06T11:24:49.643Z,23.76
2017-09-06T11:27:17.963Z,23.87
2017-09-06T11:29:46.262Z,23.49
2017-09-06T11:32:14.579Z,23.65
2017-09-06T11:34:42.873Z,24.00
2017-09-06T11:37:11.187Z,23.89
2017-09-06T11:39:39.480Z,23.59
2017-09-06T11:42:07.881Z,23.03
2017-09-06T11:44:36.261Z,22.82
2017-09-06T11:47:04.567Z,22.77
2017-09-06T11:49:32.878Z,23.47
2017-09-06T11:52:01.189Z,24.66
2017-09-06T11:54:29.501Z,25.56
2017-09-06T11:56:57.804Z,25.92
2017-09-06T11:59:26.109Z,24.76
2017-09-06T12:01:54.401Z,24.16
2017-09-06T12:04:22.701Z,24.03
2017-09-06T12:06:50.997Z,24.53
2017-09-06T12:09:19.307Z,24.78
2017-09-06T12:11:47.605Z,24.23
2017-09-06T12:14:15.937Z,24.27
2017-09-06T12:16:44.260Z,24.43
2017-09-06T12:19:12.561Z,23.94
2017-09-06T12:21:40.866Z,23.52
2017-09-06T12:24:09.165Z,23.67
2017-09-06T12:26:37.569Z,22.73
2017-09-06T12:29:05.868Z,21.79
2017-09-06T12:31:34.225Z,21.19
2017-09-06T12:34:02.634Z,20.98
2017-09-06T12:36:30.941Z,21.35
2017-09-06T12:38:59.335Z,21.84
2017-09-06T12:41:27.642Z,21.90
2017-09-06T12:43:55.944Z,22.00
2017-09-06T12:46:24.273Z,21.54
2017-09-06T12:48:52.569Z,20.10
2017-09-06T12:51:21.134Z,19.52
2017-09-06T12:53:49.529Z,19.43
2017-09-06T12:56:17.910Z,19.41
2017-09-06T12:58:46.241Z,19.34
2017-09-06T13:01:14.541Z,18.89
2017-09-06T13:03:42.854Z,18.62
2017-09-06T13:06:11.218Z,18.52
2017-09-06T13:08:39.553Z,18.57
2017-09-06T13:11:07.854Z,18.49
2017-09-06T13:13:36.141Z,18.73
2017-09-06T13:16:04.446Z,18.82
2017-09-06T13:18:32.805Z,19.11
2017-09-06T13:21:01.141Z,19.07
2017-09-06T13:23:29.450Z,19.13
2017-09-06T13:25:57.766Z,19.70
2017-09-06T13:28:26.069Z,20.05
2017-09-06T13:30:54.425Z,20.32
2017-09-06T13:33:22.733Z,20.76
2017-09-06T13:35:51.053Z,21.04
2017-09-06T13:38:19.414Z,20.66
2017-09-06T13:40:47.717Z,20.23
2017-09-06T13:43:16.031Z,19.57
2017-09-06T13:45:45.089Z,19.43
2017-09-06T13:48:13.459Z,19.19
2017-09-06T13:50:41.765Z,19.18
2017-09-06T13:53:10.098Z,19.27
2017-09-06T13:55:38.404Z,19.36
2017-09-06T13:58:06.779Z,19.36
2017-09-06T14:00:35.157Z,19.52
2017-09-06T14:03:03.524Z,19.40
2017-09-06T14:05:31.898Z,19.29
2017-09-06T14:08:00.193Z,19.27
2017-09-06T14:10:28.563Z,19.38
2017-09-06T14:12:56.857Z,19.32
2017-09-06T14:15:25.203Z,19.51
2017-09-06T14:17:53.804Z,19.41
2017-09-06T14:20:22.139Z,19.33
2017-09-06T14:22:50.456Z,19.44
2017-09-06T14:25:18.835Z,19.71
2017-09-06T14:27:47.149Z,20.21
2017-09-06T14:30:15.450Z,20.89
2017-09-06T14:32:43.752Z,21.06
2017-09-06T14:35:12.058Z,21.43
2017-09-06T14:37:40.433Z,21.56
2017-09-06T14:40:08.725Z,21.41
2017-09-06T14:42:37.075Z,20.80
2017-09-06T14:45:05.388Z,20.29
2017-09-06T14:47:33.695Z,20.03
2017-09-06T14:50:02.067Z,20.14
2017-09-06T14:52:30.385Z,20.10
2017-09-06T14:54:58.766Z,20.13
2017-09-06T14:57:27.136Z,19.97
2017-09-06T14:59:55.466Z,20.14
2017-09-06T15:02:23.762Z,20.05
2017-09-06T15:04:52.058Z,20.01
2017-09-06T15:07:20.386Z,20.41
2017-09-06T15:09:48.677Z,20.03
2017-09-06T15:12:16.990Z,19.70
2017-09-06T15:14:45.298Z,19.45
2017-09-06T15:17:13.605Z,19.36
2017-09-06T15:19:41.898Z,19.34
2017-09-06T15:22:10.226Z,19.55
2017-09-06T15:24:38.529Z,19.57
2017-09-06T15:27:06.825Z,19.44
2017-09-06T15:29:35.153Z,19.53
2017-09-06T15:32:03.449Z,19.24
2017-09-06T15:34:31.756Z,19.44
2017-09-06T15:37:00.049Z,19.53
2017-09-06T15:39:28.357Z,19.49
2017-09-06T15:41:56.750Z,19.36
2017-09-06T15:44:25.065Z,19.14
2017-09-06T15:46:54.113Z,18.88
2017-09-06T15:49:22.577Z,18.54
2017-09-06T15:51:50.892Z,18.43
2017-09-06T15:54:19.203Z,18.50
2017-09-06T15:56:47.558Z,18.60
2017-09-06T15:59:15.870Z,18.42
2017-09-06T16:01:44.178Z,18.57
2017-09-06T16:04:12.481Z,18.52
2017-09-06T16:06:40.780Z,18.74
2017-09-06T16:09:09.085Z,19.01
2017-09-06T16:11:37.426Z,18.83
2017-09-06T16:14:05.754Z,18.65
2017-09-06T16:16:34.060Z,18.35
2017-09-06T16:19:02.375Z,18.41
2017-09-06T16:21:30.687Z,18.34
2017-09-06T16:23:59.014Z,18.17
2017-09-06T16:26:27.315Z,18.13
2017-09-06T16:28:55.623Z,18.13
2017-09-06T16:31:24.005Z,18.18
2017-09-06T16:33:52.333Z,18.35
2017-09-06T16:36:20.658Z,18.22
2017-09-06T16:38:48.985Z,18.13
2017-09-06T16:41:17.282Z,18.10
2017-09-06T16:43:45.574Z,17.91
2017-09-06T16:46:13.879Z,17.78
2017-09-06T16:48:42.173Z,17.58
2017-09-06T16:51:10.472Z,17.45
2017-09-06T16:53:38.789Z,17.41
2017-09-06T16:56:07.107Z,17.35
2017-09-06T16:58:35.401Z,17.38
2017-09-06T17:01:03.721Z,17.49
2017-09-06T17:03:32.017Z,17.41
2017-09-06T17:06:00.377Z,17.40
2017-09-06T17:08:28.686Z,17.41
2017-09-06T17:10:56.989Z,17.29
2017-09-06T17:13:25.298Z,17.23
2017-09-06T17:15:53.605Z,17.23
2017-09-06T17:18:21.909Z,17.09
2017-09-06T17:20:50.217Z,17.07
2017-09-06T17:23:18.518Z,17.03
2017-09-06T17:25:46.824Z,16.94
2017-09-06T17:28:15.121Z,16.91
2017-09-06T17:30:43.425Z,16.84
2017-09-06T17:33:11.725Z,16.76
2017-09-06T17:35:40.035Z,16.71
2017-09-06T17:38:08.332Z,16.72
2017-09-06T17:40:36.653Z,16.65
2017-09-06T17:43:04.961Z,16.67
2017-09-06T17:45:33.269Z,16.65
2017-09-06T17:48:01.574Z,16.66
2017-09-06T17:50:29.878Z,16.63
2017-09-06T17:52:58.172Z,16.59
2017-09-06T17:55:26.505Z,16.48
2017-09-06T17:57:54.798Z,16.47
2017-09-06T18:00:23.125Z,16.47
2017-09-06T18:02:51.422Z,16.42
2017-09-06T18:05:19.741Z,16.23
2017-09-06T18:07:48.078Z,15.89
2017-09-06T18:10:16.395Z,15.49
2017-09-06T18:12:44.697Z,15.32
2017-09-06T18:15:13.009Z,15.23
2017-09-06T18:17:41.334Z,15.20
2017-09-06T18:20:09.625Z,15.16
2017-09-06T18:22:37.947Z,15.15
2017-09-06T18:25:06.258Z,15.15
2017-09-06T18:27:34.577Z,15.07
2017-09-06T18:30:02.924Z,15.07
2017-09-06T18:32:31.229Z,15.01
2017-09-06T18:34:59.529Z,14.98
2017-09-06T18:37:27.895Z,14.93
2017-09-06T18:39:56.212Z,14.96
2017-09-06T18:42:24.529Z,14.90
2017-09-06T18:44:52.828Z,14.88
2017-09-06T18:47:21.132Z,14.88
2017-09-06T18:49:49.496Z,14.90
2017-09-06T18:52:17.911Z,14.87
2017-09-06T18:54:46.202Z,14.81
2017-09-06T18:57:14.557Z,14.87
2017-09-06T18:59:42.866Z,14.84
2017-09-06T19:02:11.220Z,14.82
2017-09-06T19:04:39.564Z,14.85
2017-09-06T19:07:07.869Z,14.84
2017-09-06T19:09:36.166Z,14.84
2017-09-06T19:12:04.481Z,14.84
2017-09-06T19:14:32.778Z,14.85
2017-09-06T19:17:01.087Z,14.83
2017-09-06T19:19:29.385Z,14.84
2017-09-06T19:21:57.712Z,14.82
2017-09-06T19:24:26.114Z,14.80
2017-09-06T19:26:54.428Z,14.80
2017-09-06T19:29:22.721Z,14.79
2017-09-06T19:31:51.037Z,14.77
2017-09-06T19:34:19.386Z,14.71
2017-09-06T19:36:47.689Z,14.70
2017-09-06T19:39:16.050Z,14.66
2017-09-06T19:41:44.398Z,14.67
2017-09-06T19:44:12.713Z,14.66
2017-09-06T19:46:41.025Z,14.68
2017-09-06T19:49:09.363Z,14.66
2017-09-06T19:51:37.693Z,14.55
2017-09-06T19:54:06.045Z,14.52
2017-09-06T19:56:34.419Z,14.48
2017-09-06T19:59:02.721Z,14.47
2017-09-06T20:01:31.066Z,14.46
2017-09-06T20:03:59.428Z,14.46
2017-09-06T20:06:27.731Z,14.37
2017-09-06T20:08:56.037Z,14.33
2017-09-06T20:11:24.356Z,14.35
2017-09-06T20:13:52.669Z,14.32
2017-09-06T20:16:21.008Z,14.37
2017-09-06T20:18:49.313Z,14.36
2017-09-06T20:21:17.670Z,14.29
2017-09-06T20:23:46.079Z,14.29
2017-09-06T20:26:14.552Z,14.26
2017-09-06T20:28:42.868Z,14.22
2017-09-06T20:31:11.173Z,14.24
2017-09-06T20:33:39.485Z,14.25
2017-09-06T20:36:07.792Z,14.28
2017-09-06T20:38:36.105Z,14.29
2017-09-06T20:41:04.413Z,14.25
2017-09-06T20:43:32.793Z,14.20
2017-09-06T20:46:01.082Z,14.21
2017-09-06T20:48:29.393Z,14.20
2017-09-06T20:50:57.706Z,14.17
2017-09-06T20:53:26.013Z,14.16
2017-09-06T20:55:54.337Z,14.12
2017-09-06T20:58:22.665Z,14.08
2017-09-06T21:00:50.957Z,14.05
2017-09-06T21:03:19.255Z,14.01
2017-09-06T21:05:47.597Z,14.00
2017-09-06T21:08:15.987Z,13.96
2017-09-06T21:10:44.349Z,13.98
2017-09-06T21:13:12.665Z,13.98
2017-09-06T21:15:40.975Z,13.98
2017-09-06T21:18:09.276Z,14.01
2017-09-06T21:20:37.651Z,13.98
2017-09-06T21:23:05.958Z,14.01
2017-09-06T21:25:34.265Z,14.05
2017-09-06T21:28:02.563Z,14.10
2017-09-06T21:30:30.871Z,14.08
2017-09-06T21:32:59.172Z,14.09
2017-09-06T21:35:27.491Z,14.08
2017-09-06T21:37:55.798Z,14.16
2017-09-06T21:40:24.102Z,14.18
2017-09-06T21:42:52.414Z,14.19
2017-09-06T21:45:20.742Z,14.20
2017-09-06T21:47:49.045Z,14.17
2017-09-06T21:50:17.351Z,14.15
2017-09-06T21:52:45.666Z,14.13
2017-09-06T21:55:13.961Z,14.08
2017-09-06T21:57:42.284Z,14.02
2017-09-06T22:00:10.593Z,13.89
2017-09-06T22:02:38.903Z,13.87
2017-09-06T22:05:07.210Z,13.77
2017-09-06T22:07:35.528Z,13.70
2017-09-06T22:10:03.834Z,13.64
2017-09-06T22:12:32.140Z,13.58
2017-09-06T22:15:00.433Z,13.54
2017-09-06T22:17:28.721Z,13.50
2017-09-06T22:19:57.040Z,13.45
2017-09-06T22:22:25.348Z,13.39
2017-09-06T22:24:53.663Z,13.44
2017-09-06T22:27:21.977Z,13.50
2017-09-06T22:30:24.946Z,13.48
2017-09-06T22:32:54.025Z,13.48
2017-09-06T22:35:22.333Z,13.49
2017-09-06T22:37:51.415Z,13.44
2017-09-06T22:40:20.492Z,13.43
2017-09-06T22:42:48.802Z,13.46
2017-09-06T22:45:17.141Z,13.47
2017-09-06T22:47:45.552Z,13.46
2017-09-06T22:50:14.613Z,13.54
2017-09-06T22:52:42.921Z,13.57
2017-09-06T22:55:12.025Z,13.65
2017-09-06T22:57:41.098Z,13.67
2017-09-06T23:00:09.409Z,13.64
2017-09-06T23:02:38.494Z,13.61
2017-09-06T23:05:07.569Z,13.57
2017-09-06T23:07:35.893Z,13.54
2017-09-06T23:10:04.193Z,13.53
2017-09-06T23:12:32.559Z,13.52
2017-09-06T23:15:00.850Z,13.49
2017-09-06T23:17:29.182Z,13.47
2017-09-06T23:19:58.252Z,13.46
2017-09-06T23:22:26.557Z,13.42
2017-09-06T23:24:55.637Z,13.42
2017-09-06T23:27:24.703Z,13.37
2017-09-06T23:29:53.035Z,13.33
2017-09-06T23:32:21.347Z,13.31
2017-09-06T23:34:49.657Z,13.27
2017-09-06T23:37:17.966Z,13.22
2017-09-06T23:39:46.281Z,13.25
2017-09-06T23:42:14.580Z,13.23
2017-09-06T23:44:42.921Z,13.17
2017-09-06T23:47:11.230Z,13.13
2017-09-06T23:49:39.550Z,13.11
2017-09-06T23:52:07.857Z,13.05
2017-09-06T23:54:36.157Z,13.05
2017-09-06T23:57:04.475Z,12.99
2017-09-06T23:59:33.598Z,13.00
